Airport View

Enter AWOS ICAO identifier for current METAR.

ex. KFNL

19 Feb 2019 12:34

Frequency: 133.275

Phone: 731-352-2854

Other Area AWOS: KPHT - KPVE - KUCY - KCEY

TAF KMKL 191133Z 1912/2012 05010KT P6SM BKN150 FM191600 06010KT P6SM VCSH OVC080 FM192000 06010KT 5SM -SHRA BR OVC015 FM192300 08012KT 3SM SHRA BR OVC009 WS020/12045KT FM200500 12011KT 4SM SHRA BR VCTS OVC007CB WS020/17060KT FM200900 16010KT 3SM SHRA BR VCTS BKN006CB OVC015 WS020/18055KT